aviador You're here:

GMFM Decoded Metar

MEKNES in MOROCCO
Report Time2018-05-26 08:00:00
UTC Time2018-05-26 08:18:52
Flight Rules vfr VFR
Wind070° at 03 kt
W.Decomp.*RWY 08: 3.0 kt HW 0.4 kt LCW
RWY 09: 2.9 kt HW 0.9 kt LCW
W.Rank070° ranks 17
Current wind is below 070° avg. (7.2)
Visibility9999 m
Phenomena:N/A
Clouds:Scattered 016 Hf
Expected CloudBase > 1,200 ft AGL from Temp-Dew spread
CeilingNone
Temp16°C (ISA +5)
Dew Point13°C (83% RH)
AAT15.9°C
QNH1014 hPa
Density Alt2,513 ft
Elevation1,801 ft
Report Wrong Elevation
Raw Report
GMFM 260800Z 07003KT 9999 SCT016 16/13 Q1014 NOSIG=

Extra information for GMFM:More info

Metar Taf Metar & Taf Last 4 Metars F.Rules Stats Wind Profile Meteogram Temp Stats Airport Information Weather charts Add Link Nearby VenuesMetar ALERT Operation Metar Decoded Social comments